createdAt,value
2023-04-22T00:00:18.320Z,101192.47
2023-04-22T00:02:46.088Z,101195.22
2023-04-22T00:05:16.418Z,101183.16
2023-04-22T00:07:45.633Z,101186.56
2023-04-22T00:10:12.860Z,101184.06
2023-04-22T00:12:40.044Z,101178.94
2023-04-22T00:15:07.751Z,101176.28
2023-04-22T00:17:34.968Z,101175.44
2023-04-22T00:20:02.277Z,101166.69
2023-04-22T00:22:29.340Z,101161.59
2023-04-22T00:24:56.495Z,101159.09
2023-04-22T00:27:23.463Z,101160.91
2023-04-22T00:29:50.530Z,101157.47
2023-04-22T00:32:17.549Z,101161.91
2023-04-22T00:34:44.603Z,101164.63
2023-04-22T00:37:11.586Z,101151.63
2023-04-22T00:39:40.046Z,101156.06
2023-04-22T00:42:08.117Z,101145.63
2023-04-22T00:44:36.499Z,101135.22
2023-04-22T00:47:04.456Z,101129.06
2023-04-22T00:49:31.808Z,101129.13
2023-04-22T00:51:58.830Z,101120.31
2023-04-22T00:54:25.805Z,101105.28
2023-04-22T00:56:53.054Z,101107.16
2023-04-22T00:59:23.010Z,101103.59
2023-04-22T01:01:50.632Z,101097.50
2023-04-22T01:04:18.367Z,101088.78
2023-04-22T01:06:47.379Z,101094.94
2023-04-22T01:09:14.436Z,101088.78
2023-04-22T01:11:41.397Z,101082.72
2023-04-22T01:14:08.658Z,101082.72
2023-04-22T01:16:36.326Z,101075.69
2023-04-22T01:19:03.276Z,101066.88
2023-04-22T01:21:33.870Z,101063.41
2023-04-22T01:24:02.331Z,101059.13
2023-04-22T01:26:29.491Z,101060.91
2023-04-22T01:28:56.480Z,101052.97
2023-04-22T01:31:23.722Z,101044.25
2023-04-22T01:33:51.097Z,101046.91
2023-04-22T01:36:18.289Z,101046.97
2023-04-22T01:38:45.694Z,101029.38
2023-04-22T01:41:14.178Z,101025.00
2023-04-22T01:43:42.517Z,101025.06
2023-04-22T01:46:10.158Z,101021.50
2023-04-22T01:48:37.489Z,101019.78
2023-04-22T01:51:04.876Z,101021.75
2023-04-22T01:53:31.974Z,101015.44
2023-04-22T01:56:00.387Z,101004.06
2023-04-22T01:58:30.150Z,100997.97
2023-04-22T02:00:57.276Z,101004.25
2023-04-22T02:03:24.439Z,100998.94
2023-04-22T02:05:51.497Z,100999.88
2023-04-22T02:08:18.466Z,100983.22
2023-04-22T02:10:45.443Z,100978.78
2023-04-22T02:13:12.407Z,100978.84
2023-04-22T02:15:40.736Z,100971.84
2023-04-22T02:18:10.497Z,100970.91
2023-04-22T02:20:37.734Z,100956.00
2023-04-22T02:23:05.707Z,100958.66
2023-04-22T02:25:32.756Z,100954.47
2023-04-22T02:27:59.739Z,100958.75
2023-04-22T02:30:26.765Z,100955.34
2023-04-22T02:32:53.697Z,100950.97
2023-04-22T02:35:20.800Z,100946.59
2023-04-22T02:37:47.789Z,100936.84
2023-04-22T02:40:14.678Z,100935.06
2023-04-22T02:42:41.667Z,100927.13
2023-04-22T02:45:09.065Z,100919.25
2023-04-22T02:47:36.011Z,100913.94
2023-04-22T02:50:02.963Z,100906.00
2023-04-22T02:52:29.857Z,100901.66
2023-04-22T02:54:56.965Z,100896.38
2023-04-22T02:57:23.878Z,100895.50
2023-04-22T02:59:50.949Z,100888.50
2023-04-22T03:02:17.942Z,100884.00
2023-04-22T03:04:44.991Z,100884.00
2023-04-22T03:07:12.090Z,100876.06
2023-04-22T03:09:39.180Z,100873.41
2023-04-22T03:12:06.413Z,100863.75
2023-04-22T03:14:33.309Z,100865.63
2023-04-22T03:17:00.311Z,100854.06
2023-04-22T03:19:27.317Z,100855.97
2023-04-22T03:21:54.216Z,100852.38
2023-04-22T03:24:21.196Z,100842.72
2023-04-22T03:26:48.160Z,100854.06
2023-04-22T03:29:15.110Z,100842.72
2023-04-22T03:31:43.193Z,100839.16
2023-04-22T03:34:10.215Z,100835.75
2023-04-22T03:36:37.128Z,100832.22
2023-04-22T03:39:04.246Z,100819.06
2023-04-22T03:41:31.159Z,100825.16
2023-04-22T03:43:59.603Z,100820.69
2023-04-22T03:46:28.598Z,100813.69
2023-04-22T03:48:55.804Z,100810.28
2023-04-22T03:51:22.721Z,100807.53
2023-04-22T03:53:49.654Z,100797.06
2023-04-22T03:56:16.623Z,100785.78
2023-04-22T03:58:43.557Z,100784.81
2023-04-22T04:01:10.882Z,100775.06
2023-04-22T04:03:38.130Z,100775.06
2023-04-22T04:06:05.670Z,100767.22
2023-04-22T04:08:32.686Z,100763.72
2023-04-22T04:10:59.664Z,100753.91
2023-04-22T04:13:26.861Z,100760.06
2023-04-22T04:15:54.009Z,100755.69
2023-04-22T04:18:21.993Z,100751.25
2023-04-22T04:20:48.973Z,100749.47
2023-04-22T04:23:15.867Z,100745.09
2023-04-22T04:25:43.255Z,100739.78
2023-04-22T04:28:11.595Z,100742.44
2023-04-22T04:30:38.854Z,100738.00
2023-04-22T04:33:07.402Z,100730.06
2023-04-22T04:35:35.315Z,100727.53
2023-04-22T04:38:02.681Z,100733.75
2023-04-22T04:40:30.123Z,100720.44
2023-04-22T04:42:57.857Z,100721.25
2023-04-22T04:45:25.414Z,100713.31
2023-04-22T04:47:55.790Z,100707.19
2023-04-22T04:50:23.235Z,100696.03
2023-04-22T04:52:50.203Z,100704.63
2023-04-22T04:55:17.734Z,100696.69
2023-04-22T04:57:45.725Z,100690.63
2023-04-22T05:00:14.599Z,100689.69
2023-04-22T05:02:42.129Z,100690.63
2023-04-22T05:05:09.781Z,100684.47
2023-04-22T05:07:36.840Z,100675.78
2023-04-22T05:10:04.353Z,100677.56
2023-04-22T05:12:31.238Z,100679.34
2023-04-22T05:14:58.175Z,100674.00
2023-04-22T05:17:25.374Z,100668.69
2023-04-22T05:19:52.325Z,100664.31
2023-04-22T05:22:19.501Z,100667.09
2023-04-22T05:24:46.453Z,100669.72
2023-04-22T05:27:13.754Z,100660.94
2023-04-22T05:29:40.975Z,100661.84
2023-04-22T05:32:09.196Z,100666.97
2023-04-22T05:34:36.448Z,100650.22
2023-04-22T05:37:04.427Z,100650.06
2023-04-22T05:39:31.368Z,100646.66
2023-04-22T05:41:58.394Z,100637.84
2023-04-22T05:44:25.369Z,100626.34
2023-04-22T05:46:52.274Z,100625.38
2023-04-22T05:49:19.214Z,100621.03
2023-04-22T05:51:46.444Z,100621.03
2023-04-22T05:54:13.538Z,100618.28
2023-04-22T05:56:40.565Z,100621.03
2023-04-22T05:59:07.546Z,100621.78
2023-04-22T06:01:34.454Z,100623.59
2023-04-22T06:04:01.793Z,100630.53
2023-04-22T06:06:31.014Z,100633.59
2023-04-22T06:08:58.029Z,100622.81
2023-04-22T06:11:25.093Z,100607.38
2023-04-22T06:13:52.027Z,100608.81
2023-04-22T06:16:19.011Z,100611.28
2023-04-22T06:18:46.013Z,100602.59
2023-04-22T06:21:13.037Z,100595.28
2023-04-22T06:23:40.053Z,100595.25
2023-04-22T06:26:07.189Z,100600.03
2023-04-22T06:28:34.367Z,100600.22
2023-04-22T06:31:02.740Z,100596.06
2023-04-22T06:33:29.792Z,100592.50
2023-04-22T06:35:56.826Z,100592.69
2023-04-22T06:38:23.922Z,100575.47
2023-04-22T06:40:51.023Z,100575.22
2023-04-22T06:43:18.061Z,100560.75
2023-04-22T06:45:45.491Z,100558.66
2023-04-22T06:48:12.546Z,100554.34
2023-04-22T06:50:39.642Z,100553.19
2023-04-22T06:53:06.706Z,100548.56
2023-04-22T06:55:33.814Z,100540.50
2023-04-22T06:58:00.796Z,100536.06
2023-04-22T07:00:28.605Z,100534.25
2023-04-22T07:02:55.789Z,100531.50
2023-04-22T07:05:22.897Z,100530.28
2023-04-22T07:07:49.933Z,100533.59
2023-04-22T07:10:17.045Z,100526.56
2023-04-22T07:12:45.229Z,100528.94
2023-04-22T07:15:12.302Z,100524.41
2023-04-22T07:17:39.509Z,100526.84
2023-04-22T07:20:07.376Z,100526.66
2023-04-22T07:22:34.512Z,100510.66
2023-04-22T07:25:01.735Z,100505.25
2023-04-22T07:27:28.994Z,100508.66
2023-04-22T07:29:56.096Z,100504.09
2023-04-22T07:32:23.371Z,100498.63
2023-04-22T07:34:50.468Z,100483.66
2023-04-22T07:37:17.474Z,100487.03
2023-04-22T07:39:44.551Z,100479.88
2023-04-22T07:42:12.252Z,100477.97
2023-04-22T07:44:39.632Z,100468.06
2023-04-22T07:47:11.634Z,100470.00
2023-04-22T07:49:38.948Z,100478.44
2023-04-22T07:52:06.022Z,100474.69
2023-04-22T07:54:33.015Z,100462.56
2023-04-22T07:56:59.991Z,100452.91
2023-04-22T07:59:27.110Z,100456.22
2023-04-22T08:01:54.406Z,100450.63
2023-04-22T08:04:24.799Z,100443.44
2023-04-22T08:06:52.459Z,100432.19
2023-04-22T08:09:19.504Z,100436.44
2023-04-22T08:11:46.588Z,100409.09
2023-04-22T08:14:13.831Z,100424.59
2023-04-22T08:16:42.911Z,100420.34
2023-04-22T08:19:10.254Z,100411.66
2023-04-22T08:21:37.703Z,100403.72
2023-04-22T08:24:05.538Z,100411.22
2023-04-22T08:26:32.881Z,100393.47
2023-04-22T08:28:59.998Z,100412.91
2023-04-22T08:31:27.101Z,100401.13
2023-04-22T08:33:54.256Z,100393.94
2023-04-22T08:36:23.389Z,100389.47
2023-04-22T08:38:50.690Z,100388.22
2023-04-22T08:41:19.613Z,100388.22
2023-04-22T08:43:47.435Z,100377.44
2023-04-22T08:46:16.110Z,100380.19
2023-04-22T08:48:43.315Z,100365.97
2023-04-22T08:51:11.222Z,100366.81
2023-04-22T08:53:38.457Z,100363.44
2023-04-22T08:56:06.381Z,100351.78
2023-04-22T08:58:35.538Z,100349.00
2023-04-22T09:01:03.792Z,100345.06
2023-04-22T09:03:32.177Z,100346.28
2023-04-22T09:06:02.346Z,100337.34
2023-04-22T09:08:30.084Z,100328.56
2023-04-22T09:10:58.447Z,100324.63
2023-04-22T09:13:27.925Z,100314.66
2023-04-22T09:15:55.034Z,100313.41
2023-04-22T09:18:22.145Z,100312.56
2023-04-22T09:20:50.498Z,100304.38
2023-04-22T09:23:17.610Z,100299.53
2023-04-22T09:25:45.866Z,100296.34
2023-04-22T09:28:17.687Z,100284.44
2023-04-22T09:30:46.822Z,100277.56
2023-04-22T09:33:14.876Z,100267.78
2023-04-22T09:35:43.502Z,100277.88
2023-04-22T09:38:12.479Z,100264.19
2023-04-22T09:40:43.935Z,100255.25
2023-04-22T09:43:11.887Z,100259.41
2023-04-22T09:45:41.714Z,100253.88
2023-04-22T09:48:17.739Z,100249.16
2023-04-22T09:50:50.370Z,100258.63
2023-04-22T09:53:19.453Z,100249.25
2023-04-22T09:55:48.932Z,100237.34
2023-04-22T09:58:18.212Z,100236.28
2023-04-22T10:00:51.038Z,100230.75
2023-04-22T10:03:18.996Z,100234.13
2023-04-22T10:05:46.900Z,100239.00
2023-04-22T10:08:16.187Z,100237.06
2023-04-22T10:10:44.148Z,100219.19
2023-04-22T10:13:11.353Z,100218.97
2023-04-22T10:15:39.932Z,100202.81
2023-04-22T10:18:10.623Z,100202.59
2023-04-22T10:20:40.465Z,100205.13
2023-04-22T10:23:14.717Z,100186.44
2023-04-22T10:25:42.429Z,100192.63
2023-04-22T10:28:11.649Z,100190.81
2023-04-22T10:30:39.937Z,100186.72
2023-04-22T10:33:22.159Z,100182.97
2023-04-22T10:36:08.750Z,100180.91
2023-04-22T10:38:37.146Z,100177.41
2023-04-22T10:41:04.380Z,100172.59
2023-04-22T10:43:45.952Z,100165.09
2023-04-22T10:46:40.520Z,100159.34
2023-04-22T10:49:08.827Z,100160.78
2023-04-22T10:51:42.633Z,100165.38
2023-04-22T10:54:37.329Z,100170.56
2023-04-22T10:57:11.828Z,100167.66
2023-04-22T10:59:53.247Z,100168.47
2023-04-22T11:02:22.092Z,100167.88
2023-04-22T11:04:49.758Z,100169.66
2023-04-22T11:07:28.527Z,100163.63
2023-04-22T11:10:10.059Z,100158.66
2023-04-22T11:12:39.890Z,100163.16
2023-04-22T11:15:08.236Z,100160.56
2023-04-22T11:17:37.275Z,100150.28
2023-04-22T11:20:06.270Z,100138.69
2023-04-22T11:22:43.687Z,100142.53
2023-04-22T11:25:11.512Z,100130.97
2023-04-22T11:27:43.910Z,100135.78
2023-04-22T11:30:12.804Z,100134.34
2023-04-22T11:32:42.693Z,100122.72
2023-04-22T11:35:15.305Z,100125.53
2023-04-22T11:37:47.676Z,100131.69
2023-04-22T11:40:29.358Z,100122.72
2023-04-22T11:42:59.430Z,100105.34
2023-04-22T11:45:27.314Z,100108.97
2023-04-22T11:47:54.460Z,100115.84
2023-04-22T11:50:23.937Z,100112.59
2023-04-22T11:52:54.198Z,100107.88
2023-04-22T11:55:40.915Z,100101.97
2023-04-22T11:58:17.177Z,100103.66
2023-04-22T12:00:45.987Z,100105.59
2023-04-22T12:03:15.390Z,100099.06
2023-04-22T12:05:43.957Z,100109.94
2023-04-22T12:08:15.280Z,100104.72
2023-04-22T12:10:48.119Z,100067.88
2023-04-22T12:13:25.495Z,100077.19
2023-04-22T12:15:58.349Z,100099.41
2023-04-22T12:18:33.790Z,100096.03
2023-04-22T12:21:08.522Z,100084.81
2023-04-22T12:23:49.527Z,100092.66
2023-04-22T12:26:18.731Z,100094.59
2023-04-22T12:28:46.578Z,100081.59
2023-04-22T12:31:16.815Z,100072.53
2023-04-22T12:33:45.290Z,100059.47
2023-04-22T12:36:13.047Z,100080.47
2023-04-22T12:38:41.016Z,100070.34
2023-04-22T12:41:08.427Z,100064.41
2023-04-22T12:43:39.872Z,100064.31
2023-04-22T12:46:08.027Z,100058.38
2023-04-22T12:48:39.872Z,100064.03
2023-04-22T12:51:07.422Z,100049.78
2023-04-22T12:53:34.582Z,100044.00
2023-04-22T12:56:02.009Z,100044.84
2023-04-22T12:58:29.046Z,100044.00
2023-04-22T13:00:56.069Z,100046.78
2023-04-22T13:03:23.329Z,100052.47
2023-04-22T13:05:50.895Z,100039.91
2023-04-22T13:08:18.432Z,100044.63
2023-04-22T13:10:45.687Z,100044.00
2023-04-22T13:15:42.763Z,100053.06
2023-04-22T13:18:09.905Z,100041.59
2023-04-22T13:20:37.198Z,100046.78
2023-04-22T13:23:05.171Z,100053.94
2023-04-22T13:25:32.907Z,100033.25
2023-04-22T13:27:59.925Z,100032.41
2023-04-22T13:30:26.918Z,100043.78
2023-04-22T13:32:54.029Z,100045.47
2023-04-22T13:35:25.646Z,100048.91
2023-04-22T13:37:53.011Z,100040.94
2023-04-22T13:40:20.037Z,100055.13
2023-04-22T13:42:47.318Z,100043.66
2023-04-22T13:45:14.443Z,100046.25
2023-04-22T13:47:41.342Z,100047.06
2023-04-22T13:50:09.525Z,100053.00
2023-04-22T13:52:37.020Z,100053.72
2023-04-22T13:55:04.698Z,100042.22
2023-04-22T13:57:32.490Z,100050.19
2023-04-22T13:59:59.803Z,100049.16
2023-04-22T14:02:26.948Z,100034.16
2023-04-22T14:04:54.069Z,100030.03
2023-04-22T14:07:21.073Z,100040.06
2023-04-22T14:09:48.178Z,100038.47
2023-04-22T14:12:15.553Z,100036.06
2023-04-22T14:14:42.857Z,100019.50
2023-04-22T14:17:09.982Z,100026.50
2023-04-22T14:19:39.538Z,100032.78
2023-04-22T14:22:06.938Z,100041.84
2023-04-22T14:24:34.316Z,100036.75
2023-04-22T14:27:04.843Z,100039.31
2023-04-22T14:29:32.360Z,100033.25
2023-04-22T14:32:00.081Z,100040.41
2023-04-22T14:34:27.595Z,100037.00
2023-04-22T14:36:55.071Z,100042.31
2023-04-22T14:39:22.115Z,100031.69
2023-04-22T14:41:49.587Z,100016.72
2023-04-22T14:44:17.082Z,100043.97
2023-04-22T14:46:44.168Z,100037.66
2023-04-22T14:49:11.240Z,100024.03
2023-04-22T14:51:38.240Z,100016.69
2023-04-22T14:54:05.465Z,100023.22
2023-04-22T14:56:32.494Z,100015.00
2023-04-22T14:58:59.520Z,100015.00
2023-04-22T15:01:26.711Z,100013.34
2023-04-22T15:03:54.048Z,100019.38
2023-04-22T15:06:23.492Z,100023.72
2023-04-22T15:08:54.440Z,100015.63
2023-04-22T15:11:21.466Z,100015.63
2023-04-22T15:13:48.679Z,100003.19
2023-04-22T15:16:15.796Z,100002.22
2023-04-22T15:18:43.450Z,100002.34
2023-04-22T15:21:10.986Z,99996.91
2023-04-22T15:23:38.043Z,99991.59
2023-04-22T15:26:08.197Z,99982.66
2023-04-22T15:28:35.460Z,99988.84
2023-04-22T15:31:02.944Z,99992.34
2023-04-22T15:33:30.496Z,99983.38
2023-04-22T15:35:57.849Z,99978.22
2023-04-22T15:38:25.137Z,99971.19
2023-04-22T15:40:52.311Z,99974.69
2023-04-22T15:43:22.578Z,99968.44
2023-04-22T15:45:50.162Z,99964.31
2023-04-22T15:48:17.324Z,99965.66
2023-04-22T15:50:44.832Z,99965.88
2023-04-22T15:53:11.905Z,99961.19
2023-04-22T15:55:39.340Z,99960.94
2023-04-22T15:58:06.451Z,99960.72
2023-04-22T16:00:33.473Z,99963.84
2023-04-22T16:03:01.002Z,99955.63
2023-04-22T16:05:29.694Z,99949.84
2023-04-22T16:07:56.889Z,99957.44
2023-04-22T16:10:26.637Z,99956.34
2023-04-22T16:12:53.803Z,99953.91
2023-04-22T16:15:23.019Z,99941.00
2023-04-22T16:17:50.190Z,99948.03
2023-04-22T16:20:17.548Z,99953.56
2023-04-22T16:22:45.388Z,99944.88
2023-04-22T16:25:13.211Z,99943.19
2023-04-22T16:27:40.380Z,99951.28
2023-04-22T16:30:08.538Z,99950.28
2023-04-22T16:32:36.208Z,99951.88
2023-04-22T16:35:03.622Z,99944.50
2023-04-22T16:37:31.589Z,99939.34
2023-04-22T16:39:58.921Z,99942.94
2023-04-22T16:42:26.175Z,99954.19
2023-04-22T16:44:54.016Z,99938.84
2023-04-22T16:47:21.394Z,99952.72
2023-04-22T16:49:48.681Z,99943.19
2023-04-22T16:52:16.160Z,99940.66
2023-04-22T16:54:43.267Z,99937.16
2023-04-22T16:57:12.110Z,99951.16
2023-04-22T16:59:39.705Z,99944.72
2023-04-22T17:02:07.058Z,99943.19
2023-04-22T17:04:34.906Z,99946.78
2023-04-22T17:07:03.418Z,99945.22
2023-04-22T17:09:30.627Z,99946.22
2023-04-22T17:11:57.863Z,99940.41
2023-04-22T17:14:26.845Z,99948.13
2023-04-22T17:16:54.287Z,99951.28
2023-04-22T17:19:21.882Z,99943.94
2023-04-22T17:21:49.172Z,99944.31
2023-04-22T17:24:16.328Z,99938.72
2023-04-22T17:26:43.882Z,99933.66
2023-04-22T17:29:11.010Z,99934.13
2023-04-22T17:31:38.449Z,99936.78
2023-04-22T17:34:05.669Z,99946.09
2023-04-22T17:36:33.620Z,99930.53
2023-04-22T17:39:00.972Z,99931.72
2023-04-22T17:41:28.363Z,99934.59
2023-04-22T17:43:56.672Z,99925.78
2023-04-22T17:46:25.606Z,99928.31
2023-04-22T17:48:55.410Z,99934.56
2023-04-22T17:51:22.603Z,99931.16
2023-04-22T17:53:53.521Z,99930.38
2023-04-22T17:56:23.682Z,99934.19
2023-04-22T17:58:51.123Z,99935.66
2023-04-22T18:01:18.633Z,99937.06
2023-04-22T18:03:46.216Z,99927.88
2023-04-22T18:06:13.924Z,99937.16
2023-04-22T18:08:41.147Z,99934.84
2023-04-22T18:11:08.894Z,99929.16
2023-04-22T18:13:36.060Z,99925.84
2023-04-22T18:16:03.430Z,99925.59
2023-04-22T18:18:30.667Z,99920.78
2023-04-22T18:20:57.783Z,99913.00
2023-04-22T18:23:25.156Z,99920.31
2023-04-22T18:25:54.396Z,99915.59
2023-04-22T18:28:22.093Z,99918.81
2023-04-22T18:30:49.535Z,99914.66
2023-04-22T18:33:17.138Z,99909.09
2023-04-22T18:35:44.259Z,99906.97
2023-04-22T18:38:11.337Z,99905.63
2023-04-22T18:40:38.689Z,99903.53
2023-04-22T18:43:06.688Z,99907.75
2023-04-22T18:45:33.959Z,99906.91
2023-04-22T18:48:03.821Z,99908.03
2023-04-22T18:50:31.048Z,99910.34
2023-04-22T18:52:58.166Z,99908.38
2023-04-22T18:55:25.898Z,99911.63
2023-04-22T18:57:53.216Z,99923.69
2023-04-22T19:00:20.729Z,99920.06
2023-04-22T19:02:48.074Z,99918.09
2023-04-22T19:05:15.368Z,99916.38
2023-04-22T19:07:44.973Z,99918.94
2023-04-22T19:10:12.545Z,99910.78
2023-04-22T19:12:39.916Z,99912.22
2023-04-22T19:15:08.204Z,99911.97
2023-04-22T19:17:36.425Z,99911.59
2023-04-22T19:20:05.774Z,99916.22
2023-04-22T19:22:33.137Z,99913.16
2023-04-22T19:25:01.641Z,99913.59
2023-04-22T19:27:29.152Z,99911.66
2023-04-22T19:29:56.344Z,99915.16
2023-04-22T19:32:24.155Z,99909.53
2023-04-22T19:34:51.959Z,99904.19
2023-04-22T19:37:20.508Z,99913.19
2023-04-22T19:39:47.811Z,99909.41
2023-04-22T19:42:14.973Z,99904.94
2023-04-22T19:44:46.926Z,99911.22
2023-04-22T19:47:14.851Z,99907.88
2023-04-22T19:49:42.848Z,99911.75
2023-04-22T19:52:12.092Z,99917.25
2023-04-22T19:54:42.071Z,99918.47
2023-04-22T19:57:11.025Z,99909.94
2023-04-22T19:59:40.812Z,99908.38
2023-04-22T20:02:10.162Z,99912.16
2023-04-22T20:04:38.806Z,99912.56
2023-04-22T20:07:07.539Z,99920.53
2023-04-22T20:09:35.676Z,99915.84
2023-04-22T20:12:05.767Z,99910.94
2023-04-22T20:14:33.360Z,99917.56
2023-04-22T20:17:00.750Z,99912.75
2023-04-22T20:19:28.794Z,99920.75
2023-04-22T20:21:57.778Z,99914.72
2023-04-22T20:24:28.505Z,99921.88
2023-04-22T20:26:56.790Z,99924.69
2023-04-22T20:29:25.211Z,99921.44
2023-04-22T20:31:52.793Z,99928.16
2023-04-22T20:34:20.555Z,99922.00
2023-04-22T20:36:49.987Z,99925.38
2023-04-22T20:39:17.501Z,99928.03
2023-04-22T20:41:46.023Z,99923.41
2023-04-22T20:44:14.699Z,99930.44
2023-04-22T20:46:42.033Z,99928.47
2023-04-22T20:49:09.287Z,99929.84
2023-04-22T20:51:36.570Z,99922.28
2023-04-22T20:54:06.147Z,99925.22
2023-04-22T20:56:37.953Z,99926.16
2023-04-22T20:59:05.252Z,99928.72
2023-04-22T21:01:32.843Z,99925.22
2023-04-22T21:04:01.587Z,99926.88
2023-04-22T21:06:34.312Z,99915.50
2023-04-22T21:09:02.255Z,99916.09
2023-04-22T21:11:29.783Z,99914.13
2023-04-22T21:13:57.130Z,99917.78
2023-04-22T21:16:30.092Z,99914.03
2023-04-22T21:19:07.007Z,99920.56
2023-04-22T21:21:34.675Z,99909.56
2023-04-22T21:24:03.156Z,99913.75
2023-04-22T21:26:31.457Z,99914.00
2023-04-22T21:28:59.449Z,99925.78
2023-04-22T21:31:28.128Z,99921.81
2023-04-22T21:33:56.249Z,99922.91
2023-04-22T21:36:25.235Z,99923.03
2023-04-22T21:38:52.447Z,99920.66
2023-04-22T21:41:19.709Z,99922.59
2023-04-22T21:43:46.946Z,99923.69
2023-04-22T21:46:14.035Z,99921.19
2023-04-22T21:48:41.272Z,99914.69
2023-04-22T21:51:08.425Z,99919.72
2023-04-22T21:53:35.547Z,99909.22
2023-04-22T21:56:02.566Z,99916.38
2023-04-22T21:58:29.622Z,99917.47
2023-04-22T22:00:57.096Z,99916.63
2023-04-22T22:03:24.644Z,99919.28
2023-04-22T22:05:51.844Z,99913.25
2023-04-22T22:08:18.809Z,99914.22
2023-04-22T22:10:46.157Z,99908.19
2023-04-22T22:13:13.655Z,99905.41
2023-04-22T22:15:41.147Z,99907.34
2023-04-22T22:18:08.190Z,99905.53
2023-04-22T22:20:36.971Z,99911.84
2023-04-22T22:23:04.014Z,99911.09
2023-04-22T22:25:31.304Z,99909.19
2023-04-22T22:27:58.598Z,99908.69
2023-04-22T22:30:26.574Z,99916.56
2023-04-22T22:32:55.102Z,99914.75
2023-04-22T22:35:22.104Z,99913.06
2023-04-22T22:37:49.529Z,99915.72
2023-04-22T22:40:16.854Z,99902.06
2023-04-22T22:42:44.153Z,99910.06
2023-04-22T22:45:11.738Z,99910.06
2023-04-22T22:47:38.981Z,99911.28
2023-04-22T22:50:07.328Z,99909.72
2023-04-22T22:52:34.329Z,99908.88
2023-04-22T22:55:01.726Z,99901.88
2023-04-22T22:57:28.715Z,99912.63
2023-04-22T22:59:56.078Z,99899.56
2023-04-22T23:02:23.219Z,99890.88
2023-04-22T23:04:50.433Z,99887.38
2023-04-22T23:07:18.062Z,99888.63
2023-04-22T23:09:45.084Z,99895.03
2023-04-22T23:12:12.074Z,99884.66
2023-04-22T23:14:39.478Z,99889.13
2023-04-22T23:17:06.899Z,99874.28
2023-04-22T23:19:35.018Z,99890.38
2023-04-22T23:22:02.976Z,99890.47
2023-04-22T23:24:30.270Z,99888.78
2023-04-22T23:26:57.712Z,99884.69
2023-04-22T23:29:25.271Z,99887.63
2023-04-22T23:31:52.501Z,99883.53
2023-04-22T23:34:23.836Z,99883.78
2023-04-22T23:36:50.894Z,99873.41
2023-04-22T23:39:17.881Z,99874.50
2023-04-22T23:41:45.251Z,99867.63
2023-04-22T23:44:12.208Z,99873.19
2023-04-22T23:46:39.535Z,99877.66
2023-04-22T23:49:07.494Z,99869.22
2023-04-22T23:51:35.489Z,99879.00
2023-04-22T23:54:02.547Z,99871.41
2023-04-22T23:56:29.822Z,99868.88
2023-04-22T23:58:57.568Z,99869.97
